Time;durP1;ratioP1;P1;durP2;ratioP2;P2;SDS_P1;SDS_P2;PMS_P1;PMS_P2;Temp;Humidity;BMP_temperature;BMP_pressure;BME280_temperature;BME280_humidity;BME280_pressure;Samples;Min_cycle;Max_cycle;Signal;HPM_P1;HPM_P2
2022/01/06 00:01:00;;;;;;;3.22;1.55;;;3.50;99.90;;;;;;4722121;30;20051;-92
2022/01/06 00:03:39;;;;;;;5.65;2.38;;;3.70;99.90;;;;;;4722053;30;20040;-92
2022/01/06 00:06:09;;;;;;;7.07;1.77;;;3.80;99.90;;;;;;4722254;30;20044;-92
2022/01/06 00:08:37;;;;;;;4.47;1.42;;;3.30;99.90;;;;;;4721718;30;20040;-92
2022/01/06 00:11:15;;;;;;;;;;;;;;;;;;;;;
2022/01/06 00:14:02;;;;;;;14.95;2.38;;;3.50;99.90;;;;;;4735760;30;20062;-92
2022/01/06 00:16:38;;;;;;;2.53;1.40;;;2.50;99.90;;;;;;4716591;30;20060;-92
2022/01/06 00:24:28;;;;;;;9.27;2.63;;;3.40;99.90;;;;;;4718921;30;20093;-92
2022/01/06 00:27:05;;;;;;;;;;;;;;;;;;;;;
2022/01/06 00:29:44;;;;;;;2.83;1.67;;;3.40;99.90;;;;;;4717929;30;20052;-91
2022/01/06 00:32:10;;;;;;;4.45;2.03;;;3.30;99.90;;;;;;4691710;30;20053;-92
2022/01/06 00:34:39;;;;;;;3.33;2.63;;;3.30;99.90;;;;;;4703757;30;20087;-93
2022/01/06 00:37:08;;;;;;;4.18;1.88;;;3.40;99.90;;;;;;4704568;30;20075;-92
2022/01/06 00:40:04;;;;;;;7.20;2.15;;;3.30;99.90;;;;;;4689397;30;20049;-92
2022/01/06 00:42:32;;;;;;;11.02;2.53;;;3.30;99.90;;;;;;4703918;30;20049;-92
2022/01/06 00:45:11;;;;;;;;;;;;;;;;;;;;;
2022/01/06 00:47:39;;;;;;;10.90;3.90;;;3.70;99.90;;;;;;4704850;30;20059;-93
2022/01/06 00:50:08;;;;;;;7.93;1.60;;;3.20;99.90;;;;;;4703884;30;20052;-92
2022/01/06 00:52:43;;;;;;;4.80;2.15;;;3.20;99.90;;;;;;4704109;30;20106;-92
2022/01/06 00:55:22;;;;;;;3.08;1.27;;;3.20;99.90;;;;;;4704987;30;20548;-92
2022/01/06 00:57:59;;;;;;;4.30;1.88;;;3.20;99.90;;;;;;4703496;30;20120;-93
2022/01/06 01:00:31;;;;;;;6.53;1.27;;;3.00;99.90;;;;;;4691149;30;20059;-93
2022/01/06 01:03:05;;;;;;;7.78;2.13;;;3.20;99.90;;;;;;4704152;30;20058;-92
2022/01/06 01:05:36;;;;;;;11.18;2.95;;;3.60;99.90;;;;;;4703238;30;20053;-93
2022/01/06 01:08:32;;;;;;;;;;;;;;;;;;;;;
2022/01/06 01:11:27;;;;;;;6.55;1.88;;;3.20;99.90;;;;;;4701460;30;20516;-93
2022/01/06 01:14:16;;;;;;;7.80;1.52;;;3.30;99.90;;;;;;4716077;30;20065;-92
2022/01/06 01:17:03;;;;;;;4.93;1.48;;;4.50;99.90;;;;;;4720967;30;20134;-92
2022/01/06 01:19:50;;;;;;;6.50;2.58;;;3.10;99.90;;;;;;4705741;30;20049;-92
2022/01/06 01:22:23;;;;;;;12.18;1.77;;;3.30;99.90;;;;;;4704028;30;20070;-92
2022/01/06 01:25:07;;;;;;;4.57;2.83;;;2.30;99.90;;;;;;4703562;30;20053;-93
2022/01/06 01:27:38;;;;;;;11.98;1.75;;;2.60;99.90;;;;;;4703574;30;20053;-92
2022/01/06 01:30:10;;;;;;;6.63;1.52;;;2.70;99.90;;;;;;4704309;30;20084;-93
2022/01/06 01:32:48;;;;;;;9.65;2.30;;;3.20;99.90;;;;;;4703408;30;20053;-92
2022/01/06 01:35:31;;;;;;;5.43;1.85;;;3.20;99.90;;;;;;4703814;30;20053;-92
2022/01/06 01:38:02;;;;;;;4.65;1.77;;;4.50;99.90;;;;;;4688761;30;20055;-93
2022/01/06 01:40:34;;;;;;;6.40;2.35;;;3.20;99.90;;;;;;4690886;30;20055;-93
2022/01/06 01:43:05;;;;;;;5.55;1.60;;;3.20;99.90;;;;;;4703343;30;20060;-92
2022/01/06 01:45:45;;;;;;;3.72;2.00;;;3.20;99.90;;;;;;4704055;30;20452;-92
2022/01/06 01:48:22;;;;;;;4.50;2.00;;;4.00;99.90;;;;;;4704271;30;20091;-93
2022/01/06 01:51:01;;;;;;;4.13;1.63;;;3.60;99.90;;;;;;4717856;30;20063;-93
2022/01/06 01:53:30;;;;;;;2.75;2.00;;;3.50;99.90;;;;;;4687861;30;20056;-93
2022/01/06 01:56:07;;;;;;;7.60;1.63;;;3.10;99.90;;;;;;4703582;30;20143;-91
2022/01/06 01:58:37;;;;;;;5.30;0.82;;;3.00;99.90;;;;;;4690077;30;20119;-92
2022/01/06 02:01:11;;;;;;;5.47;2.03;;;2.90;99.90;;;;;;4703508;30;20048;-92
2022/01/06 02:03:44;;;;;;;4.38;1.73;;;2.90;99.90;;;;;;4703137;30;20493;-93
2022/01/06 02:06:10;;;;;;;5.18;2.72;;;3.80;99.90;;;;;;4704213;30;20065;-93
2022/01/06 02:08:44;;;;;;;9.32;1.60;;;4.00;99.90;;;;;;4703185;30;20409;-93
2022/01/06 02:11:13;;;;;;;7.53;1.33;;;2.70;99.90;;;;;;4703537;30;20092;-93
2022/01/06 02:13:50;;;;;;;6.07;1.73;;;2.80;99.90;;;;;;4703310;30;20515;-92
2022/01/06 02:16:22;;;;;;;2.70;2.05;;;2.70;99.90;;;;;;4703780;30;20493;-92
2022/01/06 02:18:54;;;;;;;8.23;1.52;;;3.60;99.90;;;;;;4738441;30;20094;-92
2022/01/06 02:21:23;;;;;;;5.57;2.53;;;2.70;99.90;;;;;;4738724;30;20116;-92
2022/01/06 02:23:49;;;;;;;5.22;2.00;;;2.60;99.90;;;;;;4737984;30;20060;-92
2022/01/06 02:26:21;;;;;;;3.10;1.27;;;2.70;99.90;;;;;;4738053;30;20580;-92
2022/01/06 02:28:54;;;;;;;3.55;1.35;;;2.70;99.90;;;;;;4724040;30;20147;-92
2022/01/06 02:31:31;;;;;;;11.38;2.30;;;2.80;99.90;;;;;;4738788;30;20396;-93
2022/01/06 02:34:02;;;;;;;8.18;1.85;;;2.70;99.90;;;;;;4738022;30;20056;-93
2022/01/06 02:36:27;;;;;;;2.72;1.42;;;2.20;99.90;;;;;;4724108;30;20052;-92
2022/01/06 02:38:53;;;;;;;9.87;2.00;;;2.80;99.90;;;;;;4737699;30;20051;-92
2022/01/06 02:41:29;;;;;;;;;;;;;;;;;;;;;
2022/01/06 02:44:00;;;;;;;13.38;2.70;;;2.80;99.90;;;;;;4752866;30;20056;-93
2022/01/06 02:46:42;;;;;;;;;;;;;;;;;;;;;
2022/01/06 02:49:12;;;;;;;3.38;1.83;;;2.20;99.90;;;;;;4739088;30;20082;-91
2022/01/06 02:51:48;;;;;;;5.78;1.67;;;2.20;99.90;;;;;;4738023;30;20076;-90
2022/01/06 02:54:26;;;;;;;11.15;1.88;;;2.70;99.90;;;;;;4752882;30;20135;-92
2022/01/06 02:56:52;;;;;;;7.75;1.98;;;3.00;99.90;;;;;;4723257;30;20504;-91
2022/01/06 02:59:24;;;;;;;9.95;2.13;;;2.60;99.90;;;;;;4737636;30;20496;-91
2022/01/06 03:01:52;;;;;;;5.68;2.55;;;3.00;99.90;;;;;;4723157;30;20056;-91
2022/01/06 03:04:23;;;;;;;6.38;1.77;;;3.60;99.90;;;;;;4736716;30;20087;-91
2022/01/06 03:06:52;;;;;;;12.25;2.25;;;2.70;99.90;;;;;;4722996;30;20082;-92
2022/01/06 03:09:26;;;;;;;3.53;2.42;;;3.30;99.90;;;;;;4737443;30;20086;-92
2022/01/06 03:11:53;;;;;;;13.60;2.17;;;2.70;99.90;;;;;;4737356;30;20064;-92
2022/01/06 03:14:22;;;;;;;3.92;2.47;;;2.70;99.90;;;;;;4732168;30;20048;-91
2022/01/06 03:16:50;;;;;;;7.47;1.77;;;2.70;99.90;;;;;;4737353;30;20059;-92
2022/01/06 03:19:19;;;;;;;9.10;2.40;;;3.20;99.90;;;;;;4722568;30;20052;-92
2022/01/06 03:21:48;;;;;;;10.60;2.65;;;2.60;99.90;;;;;;4737826;30;20049;-92
2022/01/06 03:24:16;;;;;;;10.05;2.55;;;2.60;99.90;;;;;;4723275;30;20059;-92
2022/01/06 03:27:02;;;;;;;8.70;2.20;;;2.60;99.90;;;;;;4723392;30;20060;-93
2022/01/06 03:29:31;;;;;;;4.25;1.90;;;2.10;99.90;;;;;;4737127;30;20180;-92
2022/01/06 03:31:59;;;;;;;13.40;3.30;;;1.70;99.90;;;;;;4736840;30;20052;-92
2022/01/06 03:34:26;;;;;;;6.35;2.47;;;2.50;99.90;;;;;;4737342;30;20523;-92
2022/01/06 03:36:56;;;;;;;6.18;1.75;;;3.40;99.90;;;;;;4736402;30;20052;-92
2022/01/06 03:39:27;;;;;;;3.65;1.30;;;2.40;99.90;;;;;;4722926;30;20125;-92
2022/01/06 03:42:02;;;;;;;6.30;1.63;;;3.40;99.90;;;;;;4737127;30;20060;-92
2022/01/06 03:44:30;;;;;;;8.25;2.33;;;2.80;99.90;;;;;;4737260;30;20048;-92
2022/01/06 03:47:02;;;;;;;8.45;1.95;;;3.00;99.90;;;;;;4736346;30;20052;-92
2022/01/06 03:49:28;;;;;;;9.23;2.08;;;2.20;99.90;;;;;;4737218;30;20059;-92
2022/01/06 03:52:01;;;;;;;9.02;2.17;;;3.10;99.90;;;;;;4736528;30;20077;-92
2022/01/06 03:54:27;;;;;;;10.40;2.22;;;3.20;99.90;;;;;;4736902;30;20044;-93
2022/01/06 03:56:56;;;;;;;6.87;1.67;;;2.20;99.90;;;;;;4736953;30;20067;-92
2022/01/06 03:59:24;;;;;;;13.13;2.67;;;2.10;99.90;;;;;;4736283;30;20569;-94
2022/01/06 04:02:03;;;;;;;10.18;2.78;;;2.20;99.90;;;;;;4723213;30;20162;-93
2022/01/06 04:04:52;;;;;;;15.68;2.50;;;2.10;99.90;;;;;;4737023;30;20048;-93
2022/01/06 04:07:46;;;;;;;6.18;1.75;;;1.70;99.90;;;;;;4752096;30;20055;-93
2022/01/06 04:10:14;;;;;;;3.22;1.40;;;2.00;99.90;;;;;;4749912;30;20060;-92
2022/01/06 04:12:54;;;;;;;2.45;1.17;;;2.00;99.90;;;;;;4722935;30;20048;-93
2022/01/06 04:15:22;;;;;;;4.80;1.70;;;2.40;99.90;;;;;;4736755;30;20058;-93
2022/01/06 04:17:48;;;;;;;2.55;2.15;;;1.50;99.90;;;;;;4736402;30;20086;-93
2022/01/06 04:20:25;;;;;;;3.43;1.27;;;1.90;99.90;;;;;;4737001;30;20523;-92
2022/01/06 04:22:51;;;;;;;6.72;2.30;;;2.60;99.90;;;;;;4734032;30;20207;-93
2022/01/06 04:25:22;;;;;;;2.20;1.33;;;1.80;99.90;;;;;;4747426;30;20052;-93
2022/01/06 04:27:53;;;;;;;1.63;1.13;;;2.00;99.90;;;;;;4737328;30;20139;-92
2022/01/06 04:30:24;;;;;;;6.65;1.90;;;2.30;99.90;;;;;;4736529;30;20145;-93
2022/01/06 04:32:56;;;;;;;1.77;1.42;;;1.60;99.90;;;;;;4737162;30;20048;-93
2022/01/06 04:35:22;;;;;;;7.60;1.88;;;1.50;99.90;;;;;;4736199;30;20044;-94
2022/01/06 04:37:49;;;;;;;8.93;2.27;;;1.50;99.90;;;;;;4736467;30;20051;-93
2022/01/06 04:40:35;;;;;;;;;;;;;;;;;;;;;
2022/01/06 04:43:01;;;;;;;3.97;1.92;;;1.40;99.90;;;;;;4738125;30;20099;-92
2022/01/06 04:45:29;;;;;;;4.50;1.50;;;2.00;99.90;;;;;;4736154;30;20070;-93
2022/01/06 04:48:05;;;;;;;;;;;;;;;;;;;;;
2022/01/06 04:50:33;;;;;;;3.67;1.42;;;1.20;99.90;;;;;;4751460;30;20051;-92
2022/01/06 04:52:59;;;;;;;3.83;1.95;;;2.30;99.90;;;;;;4750470;30;20076;-93
2022/01/06 04:55:25;;;;;;;3.53;1.50;;;2.30;99.90;;;;;;4735923;30;20090;-92
2022/01/06 04:57:56;;;;;;;10.95;1.90;;;1.10;99.90;;;;;;4736101;30;20079;-93
2022/01/06 05:00:30;;;;;;;4.07;1.50;;;0.90;99.90;;;;;;4737089;30;20048;-92
2022/01/06 05:03:01;;;;;;;12.57;2.53;;;1.10;99.90;;;;;;4736408;30;20056;-93
2022/01/06 05:05:37;;;;;;;1.73;1.00;;;2.00;99.90;;;;;;4736056;30;20048;-92
2022/01/06 05:08:30;;;;;;;9.50;1.23;;;0.90;99.90;;;;;;4735999;30;20052;-91
2022/01/06 05:11:06;;;;;;;11.02;1.80;;;0.70;99.90;;;;;;4735801;30;20496;-92
2022/01/06 05:13:34;;;;;;;1.67;1.25;;;1.80;99.90;;;;;;4721581;30;20488;-92
2022/01/06 05:16:00;;;;;;;1.63;0.88;;;1.90;99.90;;;;;;4735864;30;20052;-91
2022/01/06 05:18:40;;;;;;;;;;;;;;;;;;;;;
2022/01/06 05:21:17;;;;;;;5.60;1.73;;;-0.20;99.90;;;;;;4749644;30;20063;-92
2022/01/06 05:23:46;;;;;;;5.85;1.52;;;1.40;99.90;;;;;;4736151;30;20059;-92
2022/01/06 05:26:12;;;;;;;2.58;1.80;;;1.90;99.90;;;;;;4750239;30;20059;-92
2022/01/06 05:28:38;;;;;;;10.13;2.22;;;1.60;99.90;;;;;;4735902;30;20496;-91
2022/01/06 05:31:06;;;;;;;5.90;1.97;;;1.80;99.90;;;;;;4735716;30;20059;-91
2022/01/06 05:33:32;;;;;;;2.90;1.42;;;0.60;99.90;;;;;;4735840;30;20135;-92
2022/01/06 05:35:58;;;;;;;6.17;1.97;;;0.70;99.90;;;;;;4735662;30;20150;-91
2022/01/06 05:38:26;;;;;;;4.30;1.77;;;0.60;99.90;;;;;;4735215;30;20048;-91
2022/01/06 05:40:52;;;;;;;9.85;1.95;;;1.70;99.90;;;;;;4721237;30;20457;-91
2022/01/06 05:43:21;;;;;;;4.83;1.57;;;1.80;99.90;;;;;;4720920;30;20105;-91
2022/01/06 05:45:58;;;;;;;4.97;2.08;;;-0.10;99.90;;;;;;4735572;30;20141;-91
2022/01/06 05:48:28;;;;;;;10.48;2.20;;;0.70;99.90;;;;;;4735321;30;20060;-92
2022/01/06 05:50:56;;;;;;;4.93;1.67;;;1.60;99.90;;;;;;4735914;30;20535;-91
2022/01/06 05:53:25;;;;;;;6.50;1.27;;;0.60;99.90;;;;;;4736006;30;20057;-92
2022/01/06 05:55:53;;;;;;;1.77;1.40;;;-0.10;99.90;;;;;;4744238;30;20133;-91
2022/01/06 05:58:19;;;;;;;4.53;1.95;;;0.60;99.90;;;;;;4724146;30;20131;-91
2022/01/06 06:00:51;;;;;;;16.90;4.17;;;0.90;99.90;;;;;;4739331;30;20162;-91
2022/01/06 06:03:22;;;;;;;3.33;2.08;;;0.40;99.90;;;;;;4738084;30;20500;-91
2022/01/06 06:05:51;;;;;;;10.32;2.88;;;0.90;99.90;;;;;;4738987;30;20095;-92
2022/01/06 06:08:26;;;;;;;6.72;2.42;;;0.50;99.90;;;;;;4738032;30;20047;-91
2022/01/06 06:10:52;;;;;;;9.25;2.58;;;0.50;99.90;;;;;;4725254;30;20536;-91
2022/01/06 06:13:23;;;;;;;3.83;2.63;;;0.40;99.90;;;;;;4737830;30;20143;-92
2022/01/06 06:15:59;;;;;;;7.05;1.75;;;0.50;99.90;;;;;;4739162;30;20382;-92
2022/01/06 06:18:25;;;;;;;4.75;3.05;;;1.40;99.90;;;;;;4738998;30;20099;-91
2022/01/06 06:20:56;;;;;;;3.87;1.83;;;0.50;99.90;;;;;;4706366;30;20095;-92
2022/01/06 06:23:25;;;;;;;2.85;1.38;;;0.50;99.90;;;;;;4720460;30;20053;-92
2022/01/06 06:28:45;;;;;;;3.28;1.70;;;-0.40;99.90;;;;;;4721301;30;20061;-91
2022/01/06 06:31:13;;;;;;;16.73;2.97;;;0.40;99.90;;;;;;4706334;30;20052;-91
2022/01/06 06:33:39;;;;;;;9.43;2.25;;;1.60;99.90;;;;;;4691921;30;20106;-92
2022/01/06 06:36:08;;;;;;;11.10;1.70;;;0.40;99.90;;;;;;4706548;30;20056;-92
2022/01/06 06:38:40;;;;;;;13.17;2.67;;;1.60;99.90;;;;;;4691485;30;20109;-91
2022/01/06 06:41:16;;;;;;;;;;;;;;;;;;;;;
2022/01/06 06:43:42;;;;;;;12.88;3.65;;;0.30;99.90;;;;;;4720720;30;20072;-91
2022/01/06 06:46:09;;;;;;;3.30;1.77;;;1.70;99.90;;;;;;4705679;30;20052;-91
2022/01/06 06:48:37;;;;;;;4.87;1.77;;;1.50;99.90;;;;;;4691213;30;20135;-91
2022/01/06 06:51:06;;;;;;;2.72;1.52;;;1.20;99.90;;;;;;4720238;30;20052;-91
2022/01/06 06:53:36;;;;;;;7.57;3.33;;;0.40;99.90;;;;;;4705553;30;20056;-91
2022/01/06 06:56:04;;;;;;;5.57;1.65;;;0.30;99.90;;;;;;4706007;30;20060;-91
2022/01/06 06:58:33;;;;;;;8.35;1.73;;;0.40;99.90;;;;;;4705357;30;20091;-92
2022/01/06 07:00:58;;;;;;;4.40;1.45;;;0.20;99.90;;;;;;4705938;30;20401;-91
2022/01/06 07:03:28;;;;;;;4.93;1.53;;;1.40;99.90;;;;;;4704627;30;20053;-91
2022/01/06 07:06:16;;;;;;;6.60;2.05;;;1.30;99.90;;;;;;4706998;30;20139;-92
2022/01/06 07:08:45;;;;;;;2.65;1.90;;;0.30;99.90;;;;;;4702882;30;20064;-88
2022/01/06 07:11:10;;;;;;;3.67;2.15;;;1.40;99.90;;;;;;4705124;30;20053;-89
2022/01/06 07:13:39;;;;;;;12.60;2.33;;;1.50;99.90;;;;;;4719982;30;20444;-90
2022/01/06 07:16:07;;;;;;;9.45;2.30;;;0.20;99.90;;;;;;4706089;30;20139;-90
2022/01/06 07:18:41;;;;;;;5.57;1.92;;;0.20;99.90;;;;;;4706382;30;20079;-92
2022/01/06 07:21:25;;;;;;;4.40;2.00;;;0.30;99.90;;;;;;4705934;30;20057;-92
2022/01/06 07:23:52;;;;;;;6.00;1.92;;;0.50;99.90;;;;;;4689884;30;20143;-86
2022/01/06 07:26:18;;;;;;;8.13;2.60;;;1.30;99.90;;;;;;4706430;30;20080;-88
2022/01/06 07:28:47;;;;;;;9.60;1.30;;;0.10;99.90;;;;;;4706146;30;20094;-90
2022/01/06 07:33:47;;;;;;;7.60;2.67;;;0.00;99.90;;;;;;4769991;30;20044;-89
2022/01/06 07:36:13;;;;;;;6.57;2.23;;;0.80;99.90;;;;;;4740735;30;20051;-94
2022/01/06 07:38:41;;;;;;;3.07;2.03;;;1.10;99.90;;;;;;4754166;30;20108;-88
2022/01/06 07:41:09;;;;;;;2.47;1.20;;;-0.10;99.90;;;;;;4755175;30;20059;-89
2022/01/06 07:43:35;;;;;;;4.80;1.80;;;-0.10;99.90;;;;;;4754597;30;20048;-88
2022/01/06 07:46:07;;;;;;;2.67;1.53;;;-0.20;99.90;;;;;;4735617;30;20062;-88
2022/01/06 07:48:54;;;;;;;13.57;2.80;;;1.10;99.90;;;;;;4751836;30;20055;-91
2022/01/06 07:51:45;;;;;;;5.50;1.70;;;1.10;99.90;;;;;;4739880;30;20512;-90
2022/01/06 07:54:22;;;;;;;6.03;1.95;;;-0.20;99.90;;;;;;4750666;30;20062;-90
2022/01/06 07:56:50;;;;;;;13.45;2.33;;;-0.20;99.90;;;;;;4747193;30;20514;-86
2022/01/06 07:59:18;;;;;;;7.10;1.85;;;0.20;99.90;;;;;;4739173;30;20047;-87
2022/01/06 08:01:44;;;;;;;8.13;2.10;;;0.20;99.90;;;;;;4737517;30;20139;-88
2022/01/06 08:04:15;;;;;;;7.30;2.37;;;0.90;99.90;;;;;;4719816;30;20139;-87
2022/01/06 08:06:49;;;;;;;10.85;1.50;;;0.80;99.90;;;;;;4747488;30;20044;-89
2022/01/06 08:09:15;;;;;;;6.93;2.33;;;1.00;99.90;;;;;;4738083;30;20051;-88
2022/01/06 08:11:41;;;;;;;12.27;2.33;;;1.50;99.90;;;;;;4737808;30;20408;-88
2022/01/06 08:14:07;;;;;;;11.30;2.22;;;1.40;99.90;;;;;;4736787;30;20183;-88
2022/01/06 08:16:33;;;;;;;6.80;1.90;;;0.30;99.90;;;;;;4737812;30;20051;-83
2022/01/06 08:18:58;;;;;;;5.93;1.85;;;1.30;99.90;;;;;;4752474;30;20048;-84
2022/01/06 08:21:27;;;;;;;5.27;2.13;;;0.60;99.90;;;;;;4753001;30;20055;-85
2022/01/06 08:23:53;;;;;;;8.48;2.80;;;2.10;99.90;;;;;;4737102;30;20063;-85
2022/01/06 08:26:19;;;;;;;8.00;2.13;;;1.00;99.90;;;;;;4723989;30;20047;-85
2022/01/06 08:28:46;;;;;;;16.45;3.22;;;2.50;99.90;;;;;;4751700;30;20069;-85
2022/01/06 08:31:13;;;;;;;4.38;2.28;;;1.90;99.90;;;;;;4722161;30;20056;-84
2022/01/06 08:33:39;;;;;;;6.18;1.33;;;1.30;99.90;;;;;;4736477;30;20084;-86
2022/01/06 08:36:08;;;;;;;13.10;2.72;;;1.40;99.90;;;;;;4738500;30;20080;-85
2022/01/06 08:38:34;;;;;;;8.25;2.22;;;1.60;99.90;;;;;;4751350;30;20085;-85
2022/01/06 08:40:59;;;;;;;3.43;1.93;;;1.40;99.90;;;;;;4737891;30;20059;-85
2022/01/06 08:43:27;;;;;;;6.70;3.65;;;2.70;99.90;;;;;;4752794;30;20134;-84
2022/01/06 08:45:57;;;;;;;4.22;2.10;;;1.50;99.90;;;;;;4722676;30;20060;-84
2022/01/06 08:48:24;;;;;;;8.48;2.60;;;1.70;99.90;;;;;;4752443;30;20412;-83
2022/01/06 08:50:50;;;;;;;;;;;2.00;99.90;;;;;;4737660;30;20746;-84
2022/01/06 08:53:16;;;;;;;4.45;1.60;;;2.30;99.90;;;;;;4737415;30;19933;-84
2022/01/06 08:55:46;;;;;;;22.47;2.73;;;2.90;99.90;;;;;;4751424;30;20090;-85
2022/01/06 08:58:12;;;;;;;8.25;2.22;;;2.60;99.90;;;;;;4749764;30;20143;-85
2022/01/06 09:00:39;;;;;;;9.82;2.17;;;4.00;99.90;;;;;;4745674;30;20051;-85
2022/01/06 09:03:06;;;;;;;7.53;1.65;;;2.90;99.90;;;;;;4738046;30;20102;-85
2022/01/06 09:05:33;;;;;;;6.65;2.60;;;2.60;99.90;;;;;;4737207;30;20068;-83
2022/01/06 09:07:59;;;;;;;6.45;2.35;;;4.50;99.90;;;;;;4722657;30;20152;-84
2022/01/06 09:10:29;;;;;;;6.85;2.53;;;3.50;99.90;;;;;;4737839;30;20122;-84
2022/01/06 09:12:56;;;;;;;8.68;2.55;;;3.70;99.90;;;;;;4747694;30;20756;-85
2022/01/06 09:15:24;;;;;;;10.20;3.65;;;5.30;99.90;;;;;;4749110;30;20095;-85
2022/01/06 09:17:50;;;;;;;3.40;2.65;;;4.10;99.90;;;;;;4739840;30;20060;-85
2022/01/06 09:20:16;;;;;;;4.87;2.40;;;4.60;99.90;;;;;;4727683;30;20048;-86
2022/01/06 09:22:47;;;;;;;9.77;2.45;;;4.20;99.90;;;;;;4723093;30;20543;-86
2022/01/06 09:25:14;;;;;;;9.40;2.90;;;4.30;99.90;;;;;;4741024;30;20403;-88
2022/01/06 09:27:41;;;;;;;8.32;2.85;;;5.50;99.90;;;;;;4755500;30;20488;-87
2022/01/06 09:30:07;;;;;;;;;;;4.50;99.90;;;;;;4742210;30;20051;-86
2022/01/06 09:32:33;;;;;;;4.10;2.38;;;4.40;99.90;;;;;;4755514;30;20041;-87
2022/01/06 09:34:59;;;;;;;6.73;2.20;;;4.40;99.90;;;;;;4753443;30;20179;-86
2022/01/06 09:37:26;;;;;;;10.65;2.30;;;4.30;99.90;;;;;;4741626;30;20055;-89
2022/01/06 09:39:51;;;;;;;9.60;2.88;;;4.20;99.90;;;;;;4755040;30;20116;-87
2022/01/06 09:42:18;;;;;;;10.13;2.10;;;4.70;99.90;;;;;;4741564;30;20138;-87
2022/01/06 09:44:47;;;;;;;8.20;2.42;;;4.20;99.90;;;;;;4711421;30;20130;-88
2022/01/06 09:47:13;;;;;;;10.20;2.25;;;4.20;99.90;;;;;;4740481;30;20055;-88
2022/01/06 09:49:42;;;;;;;7.57;2.60;;;4.10;99.90;;;;;;4741040;30;20556;-88
2022/01/06 09:52:09;;;;;;;7.45;2.83;;;4.20;99.90;;;;;;4726969;30;20062;-88
2022/01/06 09:54:36;;;;;;;7.93;2.80;;;4.20;99.90;;;;;;4741136;30;20059;-88
2022/01/06 09:57:02;;;;;;;;;;;4.30;99.90;;;;;;4725917;30;20054;-89
2022/01/06 09:59:28;;;;;;;9.40;4.03;;;4.50;99.90;;;;;;4741012;30;19936;-88
2022/01/06 10:01:54;;;;;;;9.20;2.47;;;5.70;99.90;;;;;;4728879;30;20056;-88
2022/01/06 10:04:28;;;;;;;5.45;2.47;;;4.70;99.90;;;;;;4756084;30;20152;-88
2022/01/06 10:06:58;;;;;;;9.98;3.25;;;4.80;99.90;;;;;;4757598;30;20048;-83
2022/01/06 10:09:25;;;;;;;6.57;3.15;;;6.10;99.90;;;;;;4755395;30;20043;-87
2022/01/06 10:11:56;;;;;;;8.40;3.63;;;5.70;99.90;;;;;;4739295;30;20055;-87
2022/01/06 10:14:30;;;;;;;4.82;2.30;;;4.90;99.90;;;;;;4754373;30;20056;-88
2022/01/06 10:16:57;;;;;;;3.25;2.35;;;5.10;99.90;;;;;;4740835;30;20052;-87
2022/01/06 10:19:24;;;;;;;5.13;2.20;;;5.00;99.90;;;;;;4751907;30;20043;-87
2022/01/06 10:21:57;;;;;;;5.75;2.47;;;5.10;99.90;;;;;;4761916;30;20168;-87
2022/01/06 10:24:25;;;;;;;9.32;2.20;;;6.00;99.90;;;;;;4740912;30;20055;-87
2022/01/06 10:26:58;;;;;;;4.03;2.10;;;4.70;99.90;;;;;;4754175;30;20064;-87
2022/01/06 10:29:31;;;;;;;5.93;2.05;;;5.50;99.90;;;;;;4738885;30;20058;-88
2022/01/06 10:32:18;;;;;;;8.88;2.70;;;5.70;99.90;;;;;;4753599;30;20125;-88
2022/01/06 10:34:53;;;;;;;5.15;1.73;;;5.80;99.90;;;;;;4754422;30;20052;-86
2022/01/06 10:37:25;;;;;;;9.57;2.63;;;5.90;99.90;;;;;;4740784;30;20047;-87
2022/01/06 10:39:59;;;;;;;13.00;2.72;;;6.10;99.90;;;;;;4744275;30;20109;-86
2022/01/06 10:42:31;;;;;;;5.97;2.22;;;6.30;99.90;;;;;;4748522;30;20047;-86
2022/01/06 10:45:09;;;;;;;6.57;2.00;;;6.50;99.90;;;;;;4754968;30;20074;-86
2022/01/06 10:47:39;;;;;;;;;;;6.60;99.90;;;;;;4741964;30;20052;-87
2022/01/06 10:50:25;;;;;;;4.45;1.70;;;6.70;99.90;;;;;;4740176;30;19976;-87
2022/01/06 10:52:53;;;;;;;8.00;1.70;;;7.00;99.90;;;;;;4740150;30;20060;-86
2022/01/06 10:55:22;;;;;;;7.90;2.00;;;7.20;99.90;;;;;;4726237;30;20116;-86
2022/01/06 10:58:13;;;;;;;6.25;2.63;;;7.40;99.90;;;;;;4744873;30;20056;-95
2022/01/06 11:00:48;;;;;;;7.30;2.28;;;7.70;99.90;;;;;;4742405;30;20189;-94
2022/01/06 11:03:34;;;;;;;;;;;;;;;;;;;;;
2022/01/06 11:17:31;;;;;;;;;;;;;;;;;;;;;
2022/01/06 11:24:16;;;;;;;6.63;2.20;;;9.20;99.90;;;;;;4579790;31;20048;-89
2022/01/06 11:31:15;;;;;;;;;;;;;;;;;;;;;
2022/01/06 11:34:32;;;;;;;2.40;1.65;;;10.30;99.90;;;;;;4627765;31;20063;-95
2022/01/06 11:41:09;;;;;;;;;;;;;;;;;;;;;
2022/01/06 11:45:08;;;;;;;;;;;;;;;;;;;;;
2022/01/06 12:00:01;;;;;;;5.72;1.77;;;9.40;99.90;;;;;;4604235;31;20472;-94
2022/01/06 12:02:31;;;;;;;3.53;1.60;;;8.90;99.90;;;;;;4585798;31;20056;-89
2022/01/06 12:05:06;;;;;;;;;;;9.30;99.90;;;;;;4668312;30;20058;-89
2022/01/06 12:07:34;;;;;;;3.05;1.42;;;9.30;99.90;;;;;;4722627;30;19953;-89
2022/01/06 12:10:09;;;;;;;5.75;1.83;;;9.30;99.90;;;;;;4736725;30;20043;-90
2022/01/06 12:12:43;;;;;;;6.50;2.13;;;9.10;99.90;;;;;;4748929;30;20615;-87
2022/01/06 12:15:12;;;;;;;6.40;1.80;;;9.50;99.90;;;;;;4748256;30;20056;-87
2022/01/06 12:17:52;;;;;;;4.53;1.55;;;9.50;99.90;;;;;;4738329;30;20063;-88
2022/01/06 12:20:27;;;;;;;2.63;1.65;;;9.20;99.90;;;;;;4752691;30;20141;-87
2022/01/06 12:22:56;;;;;;;11.50;1.92;;;9.60;99.90;;;;;;4738718;30;20095;-89
2022/01/06 12:26:09;;;;;;;5.93;1.77;;;9.70;99.90;;;;;;4737278;30;20572;-90
2022/01/06 12:31:42;;;;;;;3.78;1.50;;;9.70;99.90;;;;;;4724612;30;20135;-88
2022/01/06 12:34:13;;;;;;;4.90;1.48;;;9.70;99.90;;;;;;4752008;30;20436;-88
2022/01/06 12:40:00;;;;;;;4.85;1.20;;;9.70;99.90;;;;;;4759497;30;20074;-89
2022/01/06 12:42:45;;;;;;;2.78;1.65;;;9.70;99.90;;;;;;4738227;30;20047;-90
2022/01/06 12:45:12;;;;;;;4.80;2.72;;;9.00;99.90;;;;;;4738352;30;20653;-88
2022/01/06 12:47:55;;;;;;;2.28;1.55;;;9.80;99.90;;;;;;4740670;30;20048;-89
2022/01/06 12:50:41;;;;;;;4.53;1.60;;;9.80;99.90;;;;;;4738146;30;20047;-89
2022/01/06 12:53:07;;;;;;;11.32;1.85;;;9.90;99.90;;;;;;4739511;30;20534;-89
2022/01/06 12:56:19;;;;;;;;;;;;;;;;;;;;;
2022/01/06 12:58:52;;;;;;;7.53;2.58;;;10.70;99.90;;;;;;4718258;30;20139;-88
2022/01/06 13:01:21;;;;;;;5.47;2.20;;;9.90;99.90;;;;;;4737436;30;20048;-88
2022/01/06 13:04:00;;;;;;;7.63;2.33;;;10.00;99.90;;;;;;4740162;30;20051;-89
2022/01/06 13:06:51;;;;;;;3.45;1.90;;;9.90;99.90;;;;;;4738312;30;20551;-89
2022/01/06 13:09:26;;;;;;;7.65;2.28;;;9.80;99.90;;;;;;4750482;30;20056;-88
2022/01/06 13:12:02;;;;;;;3.38;1.70;;;9.80;99.90;;;;;;4734266;30;20055;-88
2022/01/06 13:19:17;;;;;;;;;;;;;;;;;;;;;
2022/01/06 13:22:07;;;;;;;2.75;1.70;;;10.00;99.90;;;;;;4681548;30;20423;-90
2022/01/06 13:24:45;;;;;;;6.70;2.63;;;9.90;99.90;;;;;;4683779;30;20060;-90
2022/01/06 13:27:31;;;;;;;3.92;2.05;;;9.90;99.90;;;;;;4737654;30;20063;-89
2022/01/06 13:30:07;;;;;;;7.60;2.38;;;9.90;99.90;;;;;;4732835;30;20070;-91
2022/01/06 13:32:35;;;;;;;6.30;2.58;;;9.90;99.90;;;;;;4736418;30;20138;-88
2022/01/06 13:35:33;;;;;;;3.78;2.38;;;10.00;99.90;;;;;;4751820;30;20055;-90
2022/01/06 13:38:13;;;;;;;8.18;2.50;;;10.00;99.90;;;;;;4723833;30;20063;-88
2022/01/06 13:40:46;;;;;;;8.50;2.15;;;9.90;99.90;;;;;;4737334;30;21742;-87
2022/01/06 13:43:21;;;;;;;6.35;1.98;;;10.00;99.90;;;;;;4736359;30;20092;-91
2022/01/06 13:45:51;;;;;;;10.18;2.13;;;10.00;99.90;;;;;;4737377;30;20044;-88
2022/01/06 13:51:07;;;;;;;5.10;1.40;;;9.90;99.90;;;;;;4751806;30;20147;-89
2022/01/06 13:53:55;;;;;;;2.70;1.40;;;9.70;99.90;;;;;;4736652;30;20116;-89
2022/01/06 13:57:10;;;;;;;2.30;1.35;;;9.60;99.90;;;;;;4765808;30;20097;-89
2022/01/06 13:59:17;;;;;;;3.08;1.88;;;9.50;99.90;;;;;;4741430;30;20055;-86
2022/01/06 14:01:47;;;;;;;5.60;2.20;;;8.60;99.90;;;;;;4737015;30;20402;-87
2022/01/06 14:04:21;;;;;;;8.40;1.85;;;9.40;99.90;;;;;;4736916;30;20056;-89
2022/01/06 14:06:50;;;;;;;2.75;1.70;;;9.40;99.90;;;;;;4737250;30;20085;-88
2022/01/06 14:09:16;;;;;;;3.25;1.35;;;9.40;99.90;;;;;;4750582;30;20515;-90
2022/01/06 14:11:50;;;;;;;3.63;1.40;;;9.60;99.90;;;;;;4736663;30;20087;-91
2022/01/06 14:14:33;;;;;;;3.63;1.50;;;10.30;99.90;;;;;;4740101;30;20056;-91
2022/01/06 14:17:24;;;;;;;;;;;;;;;;;;;;;
2022/01/06 14:20:00;;;;;;;3.95;1.58;;;9.30;99.90;;;;;;4755545;30;20059;-89
2022/01/06 14:22:29;;;;;;;4.70;1.58;;;9.40;99.90;;;;;;4727430;30;20105;-89
2022/01/06 14:25:03;;;;;;;5.70;2.15;;;9.10;99.90;;;;;;4741402;30;20087;-89
2022/01/06 14:27:34;;;;;;;5.13;1.98;;;8.90;99.90;;;;;;4741186;30;20174;-89
2022/01/06 14:30:00;;;;;;;2.30;2.00;;;8.60;99.90;;;;;;4741443;30;20047;-89
2022/01/06 14:32:26;;;;;;;7.90;2.23;;;7.40;99.90;;;;;;4740333;30;20523;-89
2022/01/06 14:34:54;;;;;;;4.35;2.45;;;7.90;99.90;;;;;;4741840;30;20069;-90
2022/01/06 14:37:25;;;;;;;3.90;1.65;;;7.70;99.90;;;;;;4740678;30;20079;-91
2022/01/06 14:39:51;;;;;;;6.28;1.88;;;7.60;99.90;;;;;;4740925;30;20135;-89
2022/01/06 14:42:24;;;;;;;6.83;2.13;;;7.20;99.90;;;;;;4726765;30;20135;-89
2022/01/06 14:44:50;;;;;;;4.60;1.70;;;6.80;99.90;;;;;;4740921;30;20063;-89
2022/01/06 14:47:26;;;;;;;3.53;1.87;;;6.90;99.90;;;;;;4741496;30;20060;-89